sensor_id;sensor_type;location;lat;lon;timestamp;P1;durP1;ratioP1;P2;durP2;ratioP2
62711;SDS011;48772;55.586;37.730;2022-10-16T00:01:34;11.52;;;4.82;;
62711;SDS011;48772;55.586;37.730;2022-10-16T00:04:01;9.70;;;5.45;;
62711;SDS011;48772;55.586;37.730;2022-10-16T00:06:29;11.60;;;5.93;;
62711;SDS011;48772;55.586;37.730;2022-10-16T00:08:56;8.02;;;4.70;;
62711;SDS011;48772;55.586;37.730;2022-10-16T00:11:27;10.30;;;6.35;;
62711;SDS011;48772;55.586;37.730;2022-10-16T00:13:56;14.18;;;5.50;;
62711;SDS011;48772;55.586;37.730;2022-10-16T00:16:24;13.70;;;5.72;;
62711;SDS011;48772;55.586;37.730;2022-10-16T00:18:50;10.55;;;5.80;;
62711;SDS011;48772;55.586;37.730;2022-10-16T00:21:17;11.18;;;5.47;;
62711;SDS011;48772;55.586;37.730;2022-10-16T00:24:04;10.88;;;5.85;;
62711;SDS011;48772;55.586;37.730;2022-10-16T00:26:33;11.32;;;5.32;;
62711;SDS011;48772;55.586;37.730;2022-10-16T00:29:01;8.55;;;5.38;;
62711;SDS011;48772;55.586;37.730;2022-10-16T00:31:28;11.10;;;5.55;;
62711;SDS011;48772;55.586;37.730;2022-10-16T00:33:54;13.48;;;5.78;;
62711;SDS011;48772;55.586;37.730;2022-10-16T00:36:21;10.43;;;5.65;;
62711;SDS011;48772;55.586;37.730;2022-10-16T00:38:52;10.02;;;4.93;;
62711;SDS011;48772;55.586;37.730;2022-10-16T00:41:20;11.48;;;5.90;;
62711;SDS011;48772;55.586;37.730;2022-10-16T00:43:48;12.38;;;5.53;;
62711;SDS011;48772;55.586;37.730;2022-10-16T00:49:06;8.02;;;4.70;;
62711;SDS011;48772;55.586;37.730;2022-10-16T00:54:18;10.98;;;6.40;;
62711;SDS011;48772;55.586;37.730;2022-10-16T00:56:48;8.48;;;5.75;;
62711;SDS011;48772;55.586;37.730;2022-10-16T00:59:19;11.32;;;5.55;;
62711;SDS011;48772;55.586;37.730;2022-10-16T01:01:50;9.60;;;4.97;;
62711;SDS011;48772;55.586;37.730;2022-10-16T01:04:16;12.48;;;5.78;;
62711;SDS011;48772;55.586;37.730;2022-10-16T01:06:44;7.47;;;4.65;;
62711;SDS011;48772;55.586;37.730;2022-10-16T01:09:24;13.75;;;6.40;;
62711;SDS011;48772;55.586;37.730;2022-10-16T01:17:52;14.52;;;6.28;;
62711;SDS011;48772;55.586;37.730;2022-10-16T01:20:35;13.43;;;6.47;;
62711;SDS011;48772;55.586;37.730;2022-10-16T01:23:10;18.90;;;5.82;;
62711;SDS011;48772;55.586;37.730;2022-10-16T01:28:49;8.75;;;5.63;;
62711;SDS011;48772;55.586;37.730;2022-10-16T01:31:22;13.75;;;6.32;;
62711;SDS011;48772;55.586;37.730;2022-10-16T01:33:56;10.13;;;6.10;;
62711;SDS011;48772;55.586;37.730;2022-10-16T01:36:33;11.43;;;5.50;;
62711;SDS011;48772;55.586;37.730;2022-10-16T01:39:03;12.63;;;4.70;;
62711;SDS011;48772;55.586;37.730;2022-10-16T01:41:33;12.13;;;6.63;;
62711;SDS011;48772;55.586;37.730;2022-10-16T01:46:33;11.27;;;6.65;;
62711;SDS011;48772;55.586;37.730;2022-10-16T01:49:02;12.00;;;6.28;;
62711;SDS011;48772;55.586;37.730;2022-10-16T01:51:30;10.32;;;6.10;;
62711;SDS011;48772;55.586;37.730;2022-10-16T01:53:58;11.80;;;6.45;;
62711;SDS011;48772;55.586;37.730;2022-10-16T01:56:27;11.57;;;5.80;;
62711;SDS011;48772;55.586;37.730;2022-10-16T01:59:11;13.75;;;6.07;;
62711;SDS011;48772;55.586;37.730;2022-10-16T02:01:40;15.90;;;7.63;;
62711;SDS011;48772;55.586;37.730;2022-10-16T02:04:21;15.13;;;6.95;;
62711;SDS011;48772;55.586;37.730;2022-10-16T02:06:58;12.55;;;5.53;;
62711;SDS011;48772;55.586;37.730;2022-10-16T02:09:24;10.23;;;5.80;;
62711;SDS011;48772;55.586;37.730;2022-10-16T02:11:52;12.85;;;6.43;;
62711;SDS011;48772;55.586;37.730;2022-10-16T02:14:21;10.88;;;5.30;;
62711;SDS011;48772;55.586;37.730;2022-10-16T02:16:50;12.63;;;5.82;;
62711;SDS011;48772;55.586;37.730;2022-10-16T02:19:16;8.82;;;5.47;;
62711;SDS011;48772;55.586;37.730;2022-10-16T02:24:19;12.15;;;5.65;;
62711;SDS011;48772;55.586;37.730;2022-10-16T02:27:13;8.88;;;5.38;;
62711;SDS011;48772;55.586;37.730;2022-10-16T02:29:49;10.20;;;5.47;;
62711;SDS011;48772;55.586;37.730;2022-10-16T02:32:24;9.88;;;6.07;;
62711;SDS011;48772;55.586;37.730;2022-10-16T02:34:55;10.98;;;6.40;;
62711;SDS011;48772;55.586;37.730;2022-10-16T02:37:23;9.75;;;5.10;;
62711;SDS011;48772;55.586;37.730;2022-10-16T02:39:50;8.93;;;5.15;;
62711;SDS011;48772;55.586;37.730;2022-10-16T02:42:17;12.98;;;6.53;;
62711;SDS011;48772;55.586;37.730;2022-10-16T02:44:44;11.35;;;5.38;;
62711;SDS011;48772;55.586;37.730;2022-10-16T02:47:09;9.32;;;5.70;;
62711;SDS011;48772;55.586;37.730;2022-10-16T02:49:35;10.32;;;5.53;;
62711;SDS011;48772;55.586;37.730;2022-10-16T02:52:01;9.38;;;5.35;;
62711;SDS011;48772;55.586;37.730;2022-10-16T02:54:27;6.80;;;4.35;;
62711;SDS011;48772;55.586;37.730;2022-10-16T02:56:53;8.85;;;5.93;;
62711;SDS011;48772;55.586;37.730;2022-10-16T02:59:19;11.23;;;5.90;;
62711;SDS011;48772;55.586;37.730;2022-10-16T03:01:44;9.43;;;5.68;;
62711;SDS011;48772;55.586;37.730;2022-10-16T03:04:10;8.88;;;4.93;;
62711;SDS011;48772;55.586;37.730;2022-10-16T03:06:36;12.50;;;5.78;;
62711;SDS011;48772;55.586;37.730;2022-10-16T03:09:02;11.95;;;6.28;;
62711;SDS011;48772;55.586;37.730;2022-10-16T03:11:28;9.27;;;6.45;;
62711;SDS011;48772;55.586;37.730;2022-10-16T03:13:54;10.63;;;5.30;;
62711;SDS011;48772;55.586;37.730;2022-10-16T03:16:19;6.40;;;4.63;;
62711;SDS011;48772;55.586;37.730;2022-10-16T03:18:49;8.80;;;5.65;;
62711;SDS011;48772;55.586;37.730;2022-10-16T03:21:15;9.60;;;5.53;;
62711;SDS011;48772;55.586;37.730;2022-10-16T03:23:42;8.70;;;5.75;;
62711;SDS011;48772;55.586;37.730;2022-10-16T03:26:07;11.45;;;5.55;;
62711;SDS011;48772;55.586;37.730;2022-10-16T03:28:33;10.00;;;5.93;;
62711;SDS011;48772;55.586;37.730;2022-10-16T03:30:59;12.30;;;6.38;;
62711;SDS011;48772;55.586;37.730;2022-10-16T03:33:25;9.77;;;5.70;;
62711;SDS011;48772;55.586;37.730;2022-10-16T03:35:52;11.75;;;6.22;;
62711;SDS011;48772;55.586;37.730;2022-10-16T03:38:19;10.18;;;6.47;;
62711;SDS011;48772;55.586;37.730;2022-10-16T03:40:46;10.55;;;5.53;;
62711;SDS011;48772;55.586;37.730;2022-10-16T03:43:11;8.73;;;3.45;;
62711;SDS011;48772;55.586;37.730;2022-10-16T03:45:38;8.88;;;5.40;;
62711;SDS011;48772;55.586;37.730;2022-10-16T03:48:04;11.23;;;5.85;;
62711;SDS011;48772;55.586;37.730;2022-10-16T03:50:29;9.48;;;5.80;;
62711;SDS011;48772;55.586;37.730;2022-10-16T03:52:55;14.10;;;6.05;;
62711;SDS011;48772;55.586;37.730;2022-10-16T03:55:21;8.70;;;5.45;;
62711;SDS011;48772;55.586;37.730;2022-10-16T03:57:47;12.30;;;6.28;;
62711;SDS011;48772;55.586;37.730;2022-10-16T04:00:13;11.07;;;5.88;;
62711;SDS011;48772;55.586;37.730;2022-10-16T04:02:39;10.10;;;5.47;;
62711;SDS011;48772;55.586;37.730;2022-10-16T04:05:05;14.13;;;6.40;;
62711;SDS011;48772;55.586;37.730;2022-10-16T04:07:32;8.82;;;4.53;;
62711;SDS011;48772;55.586;37.730;2022-10-16T04:09:57;7.93;;;5.13;;
62711;SDS011;48772;55.586;37.730;2022-10-16T04:12:24;11.68;;;5.70;;
62711;SDS011;48772;55.586;37.730;2022-10-16T04:14:51;11.45;;;6.60;;
62711;SDS011;48772;55.586;37.730;2022-10-16T04:17:17;10.73;;;5.32;;
62711;SDS011;48772;55.586;37.730;2022-10-16T04:19:42;9.63;;;5.05;;
62711;SDS011;48772;55.586;37.730;2022-10-16T04:22:08;8.23;;;5.63;;
62711;SDS011;48772;55.586;37.730;2022-10-16T04:24:34;9.18;;;5.80;;
62711;SDS011;48772;55.586;37.730;2022-10-16T04:27:00;10.65;;;5.85;;
62711;SDS011;48772;55.586;37.730;2022-10-16T04:29:26;8.73;;;5.32;;
62711;SDS011;48772;55.586;37.730;2022-10-16T04:31:52;10.60;;;4.55;;
62711;SDS011;48772;55.586;37.730;2022-10-16T04:34:18;12.10;;;6.63;;
62711;SDS011;48772;55.586;37.730;2022-10-16T04:36:43;10.18;;;6.53;;
62711;SDS011;48772;55.586;37.730;2022-10-16T04:39:12;11.00;;;6.45;;
62711;SDS011;48772;55.586;37.730;2022-10-16T04:41:37;11.48;;;6.15;;
62711;SDS011;48772;55.586;37.730;2022-10-16T04:44:03;7.47;;;4.38;;
62711;SDS011;48772;55.586;37.730;2022-10-16T04:46:29;7.55;;;5.10;;
62711;SDS011;48772;55.586;37.730;2022-10-16T04:48:55;10.70;;;6.15;;
62711;SDS011;48772;55.586;37.730;2022-10-16T04:51:21;10.70;;;5.07;;
62711;SDS011;48772;55.586;37.730;2022-10-16T04:53:47;10.20;;;5.60;;
62711;SDS011;48772;55.586;37.730;2022-10-16T04:56:13;10.23;;;5.95;;
62711;SDS011;48772;55.586;37.730;2022-10-16T04:58:40;11.50;;;6.10;;
62711;SDS011;48772;55.586;37.730;2022-10-16T05:01:06;10.30;;;5.85;;
62711;SDS011;48772;55.586;37.730;2022-10-16T05:03:31;6.13;;;4.30;;
62711;SDS011;48772;55.586;37.730;2022-10-16T05:05:57;11.50;;;5.75;;
62711;SDS011;48772;55.586;37.730;2022-10-16T05:08:23;9.27;;;4.90;;
62711;SDS011;48772;55.586;37.730;2022-10-16T05:10:49;12.18;;;6.20;;
62711;SDS011;48772;55.586;37.730;2022-10-16T05:13:15;9.45;;;5.85;;
62711;SDS011;48772;55.586;37.730;2022-10-16T05:15:41;10.88;;;5.85;;
62711;SDS011;48772;55.586;37.730;2022-10-16T05:18:07;10.15;;;5.45;;
62711;SDS011;48772;55.586;37.730;2022-10-16T05:20:34;8.68;;;5.57;;
62711;SDS011;48772;55.586;37.730;2022-10-16T05:22:59;10.93;;;4.95;;
62711;SDS011;48772;55.586;37.730;2022-10-16T05:25:25;10.93;;;5.35;;
62711;SDS011;48772;55.586;37.730;2022-10-16T05:27:51;10.70;;;5.93;;
62711;SDS011;48772;55.586;37.730;2022-10-16T05:30:17;11.52;;;5.75;;
62711;SDS011;48772;55.586;37.730;2022-10-16T05:32:50;12.60;;;5.70;;
62711;SDS011;48772;55.586;37.730;2022-10-16T05:35:16;10.10;;;5.68;;
62711;SDS011;48772;55.586;37.730;2022-10-16T05:37:44;8.88;;;5.43;;
62711;SDS011;48772;55.586;37.730;2022-10-16T05:40:10;10.75;;;5.90;;
62711;SDS011;48772;55.586;37.730;2022-10-16T05:42:37;7.38;;;5.20;;
62711;SDS011;48772;55.586;37.730;2022-10-16T05:45:04;8.45;;;5.50;;
62711;SDS011;48772;55.586;37.730;2022-10-16T05:47:31;15.65;;;5.72;;
62711;SDS011;48772;55.586;37.730;2022-10-16T05:49:57;10.52;;;5.93;;
62711;SDS011;48772;55.586;37.730;2022-10-16T05:52:23;10.68;;;5.68;;
62711;SDS011;48772;55.586;37.730;2022-10-16T05:54:49;10.57;;;5.93;;
62711;SDS011;48772;55.586;37.730;2022-10-16T05:57:16;13.98;;;5.45;;
62711;SDS011;48772;55.586;37.730;2022-10-16T05:59:41;13.02;;;6.18;;
62711;SDS011;48772;55.586;37.730;2022-10-16T06:02:11;16.35;;;6.35;;
62711;SDS011;48772;55.586;37.730;2022-10-16T06:04:38;7.72;;;5.63;;
62711;SDS011;48772;55.586;37.730;2022-10-16T06:07:04;10.13;;;5.88;;
62711;SDS011;48772;55.586;37.730;2022-10-16T06:09:29;9.48;;;5.30;;
62711;SDS011;48772;55.586;37.730;2022-10-16T06:11:55;15.38;;;5.78;;
62711;SDS011;48772;55.586;37.730;2022-10-16T06:14:21;8.70;;;5.15;;
62711;SDS011;48772;55.586;37.730;2022-10-16T06:16:47;14.80;;;7.00;;
62711;SDS011;48772;55.586;37.730;2022-10-16T06:19:13;14.32;;;6.60;;
62711;SDS011;48772;55.586;37.730;2022-10-16T06:21:39;15.27;;;6.53;;
62711;SDS011;48772;55.586;37.730;2022-10-16T06:24:05;9.80;;;6.03;;
62711;SDS011;48772;55.586;37.730;2022-10-16T06:26:31;10.05;;;5.90;;
62711;SDS011;48772;55.586;37.730;2022-10-16T06:28:58;7.50;;;6.07;;
62711;SDS011;48772;55.586;37.730;2022-10-16T06:31:24;9.57;;;6.90;;
62711;SDS011;48772;55.586;37.730;2022-10-16T06:33:56;13.50;;;6.47;;
62711;SDS011;48772;55.586;37.730;2022-10-16T06:36:23;11.27;;;5.78;;
62711;SDS011;48772;55.586;37.730;2022-10-16T06:38:50;16.38;;;6.95;;
62711;SDS011;48772;55.586;37.730;2022-10-16T06:41:17;12.05;;;6.43;;
62711;SDS011;48772;55.586;37.730;2022-10-16T06:43:46;10.50;;;6.70;;
62711;SDS011;48772;55.586;37.730;2022-10-16T06:46:13;13.07;;;7.93;;
62711;SDS011;48772;55.586;37.730;2022-10-16T06:48:43;11.50;;;6.80;;
62711;SDS011;48772;55.586;37.730;2022-10-16T06:51:17;10.65;;;6.68;;
62711;SDS011;48772;55.586;37.730;2022-10-16T06:53:44;15.05;;;6.95;;
62711;SDS011;48772;55.586;37.730;2022-10-16T06:56:19;12.70;;;6.20;;
62711;SDS011;48772;55.586;37.730;2022-10-16T06:58:48;12.23;;;6.40;;
62711;SDS011;48772;55.586;37.730;2022-10-16T07:01:15;12.38;;;6.88;;
62711;SDS011;48772;55.586;37.730;2022-10-16T07:03:43;15.45;;;6.03;;
62711;SDS011;48772;55.586;37.730;2022-10-16T07:06:11;12.40;;;6.47;;
62711;SDS011;48772;55.586;37.730;2022-10-16T07:08:40;11.13;;;6.60;;
62711;SDS011;48772;55.586;37.730;2022-10-16T07:11:09;11.27;;;6.20;;
62711;SDS011;48772;55.586;37.730;2022-10-16T07:13:40;12.57;;;7.10;;
62711;SDS011;48772;55.586;37.730;2022-10-16T07:16:11;13.93;;;6.43;;
62711;SDS011;48772;55.586;37.730;2022-10-16T07:21:10;10.32;;;5.22;;
62711;SDS011;48772;55.586;37.730;2022-10-16T07:23:38;13.30;;;6.18;;
62711;SDS011;48772;55.586;37.730;2022-10-16T07:26:04;9.02;;;6.05;;
62711;SDS011;48772;55.586;37.730;2022-10-16T07:28:31;10.23;;;6.32;;
62711;SDS011;48772;55.586;37.730;2022-10-16T07:31:07;12.35;;;5.93;;
62711;SDS011;48772;55.586;37.730;2022-10-16T07:33:37;11.00;;;5.32;;
62711;SDS011;48772;55.586;37.730;2022-10-16T07:36:05;8.98;;;5.63;;
62711;SDS011;48772;55.586;37.730;2022-10-16T07:38:32;7.50;;;4.90;;
62711;SDS011;48772;55.586;37.730;2022-10-16T07:41:02;11.80;;;5.10;;
62711;SDS011;48772;55.586;37.730;2022-10-16T07:43:33;13.40;;;5.40;;
62711;SDS011;48772;55.586;37.730;2022-10-16T07:45:59;6.72;;;4.70;;
62711;SDS011;48772;55.586;37.730;2022-10-16T07:48:30;6.00;;;3.72;;
62711;SDS011;48772;55.586;37.730;2022-10-16T07:50:58;8.52;;;4.65;;
62711;SDS011;48772;55.586;37.730;2022-10-16T07:53:24;8.20;;;4.70;;
62711;SDS011;48772;55.586;37.730;2022-10-16T07:55:50;6.82;;;3.67;;
62711;SDS011;48772;55.586;37.730;2022-10-16T07:58:16;10.25;;;5.30;;
62711;SDS011;48772;55.586;37.730;2022-10-16T08:00:42;8.45;;;4.90;;
62711;SDS011;48772;55.586;37.730;2022-10-16T08:03:08;10.13;;;4.07;;
62711;SDS011;48772;55.586;37.730;2022-10-16T08:05:34;7.68;;;4.60;;
62711;SDS011;48772;55.586;37.730;2022-10-16T08:08:02;9.30;;;3.83;;
62711;SDS011;48772;55.586;37.730;2022-10-16T08:10:28;11.23;;;4.70;;
62711;SDS011;48772;55.586;37.730;2022-10-16T08:12:55;12.48;;;4.82;;
62711;SDS011;48772;55.586;37.730;2022-10-16T08:15:27;11.98;;;4.78;;
62711;SDS011;48772;55.586;37.730;2022-10-16T08:18:07;7.13;;;3.92;;
62711;SDS011;48772;55.586;37.730;2022-10-16T08:20:35;7.78;;;4.53;;
62711;SDS011;48772;55.586;37.730;2022-10-16T08:23:12;13.05;;;4.93;;
62711;SDS011;48772;55.586;37.730;2022-10-16T08:25:39;10.02;;;4.88;;
62711;SDS011;48772;55.586;37.730;2022-10-16T08:28:06;8.27;;;4.35;;
62711;SDS011;48772;55.586;37.730;2022-10-16T08:30:35;8.35;;;4.45;;
62711;SDS011;48772;55.586;37.730;2022-10-16T08:33:01;6.07;;;4.47;;
62711;SDS011;48772;55.586;37.730;2022-10-16T08:35:27;8.48;;;4.32;;
62711;SDS011;48772;55.586;37.730;2022-10-16T08:37:53;7.18;;;4.35;;
62711;SDS011;48772;55.586;37.730;2022-10-16T08:40:20;7.70;;;4.32;;
62711;SDS011;48772;55.586;37.730;2022-10-16T08:45:40;5.28;;;3.17;;
62711;SDS011;48772;55.586;37.730;2022-10-16T08:50:51;10.00;;;4.00;;
62711;SDS011;48772;55.586;37.730;2022-10-16T08:53:40;8.32;;;3.90;;
62711;SDS011;48772;55.586;37.730;2022-10-16T08:56:11;9.38;;;4.00;;
62711;SDS011;48772;55.586;37.730;2022-10-16T08:58:37;7.43;;;3.83;;
62711;SDS011;48772;55.586;37.730;2022-10-16T09:01:03;8.38;;;3.92;;
62711;SDS011;48772;55.586;37.730;2022-10-16T09:25:42;6.50;;;2.88;;
62711;SDS011;48772;55.586;37.730;2022-10-16T09:28:17;6.10;;;2.72;;
62711;SDS011;48772;55.586;37.730;2022-10-16T09:30:44;9.43;;;2.88;;
62711;SDS011;48772;55.586;37.730;2022-10-16T09:33:11;4.82;;;2.78;;
62711;SDS011;48772;55.586;37.730;2022-10-16T09:35:45;6.72;;;2.97;;
62711;SDS011;48772;55.586;37.730;2022-10-16T09:38:33;9.18;;;2.58;;
62711;SDS011;48772;55.586;37.730;2022-10-16T09:41:02;2.60;;;1.90;;
62711;SDS011;48772;55.586;37.730;2022-10-16T09:43:40;5.05;;;2.40;;
62711;SDS011;48772;55.586;37.730;2022-10-16T09:48:48;6.95;;;2.20;;
62711;SDS011;48772;55.586;37.730;2022-10-16T09:51:28;9.98;;;3.00;;
62711;SDS011;48772;55.586;37.730;2022-10-16T09:54:12;4.85;;;2.83;;
62711;SDS011;48772;55.586;37.730;2022-10-16T09:56:47;4.80;;;2.38;;
62711;SDS011;48772;55.586;37.730;2022-10-16T09:59:18;8.13;;;3.03;;
62711;SDS011;48772;55.586;37.730;2022-10-16T10:01:51;2.42;;;2.13;;
62711;SDS011;48772;55.586;37.730;2022-10-16T10:04:21;5.50;;;2.83;;
62711;SDS011;48772;55.586;37.730;2022-10-16T10:06:50;7.97;;;2.75;;
62711;SDS011;48772;55.586;37.730;2022-10-16T10:11:48;3.78;;;2.22;;
62711;SDS011;48772;55.586;37.730;2022-10-16T10:14:32;5.65;;;2.70;;
62711;SDS011;48772;55.586;37.730;2022-10-16T10:19:36;4.10;;;2.50;;
62711;SDS011;48772;55.586;37.730;2022-10-16T10:22:25;4.63;;;2.53;;
62711;SDS011;48772;55.586;37.730;2022-10-16T10:38:30;6.80;;;2.60;;
62711;SDS011;48772;55.586;37.730;2022-10-16T10:41:18;10.48;;;2.80;;
62711;SDS011;48772;55.586;37.730;2022-10-16T10:44:16;3.17;;;1.98;;
62711;SDS011;48772;55.586;37.730;2022-10-16T10:46:55;6.80;;;3.10;;
62711;SDS011;48772;55.586;37.730;2022-10-16T10:54:46;6.53;;;2.67;;
62711;SDS011;48772;55.586;37.730;2022-10-16T10:57:30;3.83;;;2.40;;
62711;SDS011;48772;55.586;37.730;2022-10-16T11:00:06;5.65;;;2.30;;
62711;SDS011;48772;55.586;37.730;2022-10-16T11:02:48;4.55;;;2.08;;
62711;SDS011;48772;55.586;37.730;2022-10-16T11:05:31;4.25;;;2.63;;
62711;SDS011;48772;55.586;37.730;2022-10-16T11:08:11;10.23;;;2.95;;
62711;SDS011;48772;55.586;37.730;2022-10-16T11:10:47;3.58;;;2.50;;
62711;SDS011;48772;55.586;37.730;2022-10-16T11:16:17;5.35;;;2.75;;
62711;SDS011;48772;55.586;37.730;2022-10-16T11:22:36;5.80;;;2.55;;
62711;SDS011;48772;55.586;37.730;2022-10-16T11:25:11;6.78;;;2.15;;
62711;SDS011;48772;55.586;37.730;2022-10-16T11:27:43;5.07;;;2.58;;
62711;SDS011;48772;55.586;37.730;2022-10-16T11:30:19;5.82;;;2.25;;
62711;SDS011;48772;55.586;37.730;2022-10-16T11:35:37;5.07;;;2.78;;
62711;SDS011;48772;55.586;37.730;2022-10-16T11:38:35;3.03;;;2.30;;
62711;SDS011;48772;55.586;37.730;2022-10-16T11:41:27;2.40;;;1.88;;
62711;SDS011;48772;55.586;37.730;2022-10-16T11:47:19;3.40;;;2.00;;
62711;SDS011;48772;55.586;37.730;2022-10-16T11:53:15;5.93;;;3.35;;
62711;SDS011;48772;55.586;37.730;2022-10-16T11:56:11;3.65;;;2.00;;
62711;SDS011;48772;55.586;37.730;2022-10-16T12:04:11;4.53;;;2.92;;
62711;SDS011;48772;55.586;37.730;2022-10-16T12:09:31;4.95;;;2.85;;
62711;SDS011;48772;55.586;37.730;2022-10-16T12:12:00;3.95;;;2.60;;
62711;SDS011;48772;55.586;37.730;2022-10-16T12:14:34;5.10;;;2.55;;
62711;SDS011;48772;55.586;37.730;2022-10-16T12:17:02;5.80;;;3.03;;
62711;SDS011;48772;55.586;37.730;2022-10-16T12:19:29;4.50;;;2.45;;
62711;SDS011;48772;55.586;37.730;2022-10-16T12:21:56;5.10;;;2.65;;
62711;SDS011;48772;55.586;37.730;2022-10-16T12:26:56;6.75;;;2.30;;
62711;SDS011;48772;55.586;37.730;2022-10-16T12:32:05;4.85;;;2.45;;
62711;SDS011;48772;55.586;37.730;2022-10-16T12:35:16;4.43;;;2.40;;
62711;SDS011;48772;55.586;37.730;2022-10-16T12:37:45;4.05;;;2.45;;
62711;SDS011;48772;55.586;37.730;2022-10-16T12:40:13;4.78;;;3.00;;
62711;SDS011;48772;55.586;37.730;2022-10-16T12:42:49;4.88;;;3.08;;
62711;SDS011;48772;55.586;37.730;2022-10-16T12:45:31;10.02;;;2.95;;
62711;SDS011;48772;55.586;37.730;2022-10-16T12:48:00;5.30;;;2.70;;
62711;SDS011;48772;55.586;37.730;2022-10-16T12:50:29;10.88;;;3.58;;
62711;SDS011;48772;55.586;37.730;2022-10-16T12:52:58;8.10;;;3.33;;
62711;SDS011;48772;55.586;37.730;2022-10-16T12:55:26;6.05;;;2.97;;
62711;SDS011;48772;55.586;37.730;2022-10-16T12:58:07;5.93;;;3.10;;
62711;SDS011;48772;55.586;37.730;2022-10-16T13:04:08;6.28;;;2.88;;
62711;SDS011;48772;55.586;37.730;2022-10-16T13:09:56;7.18;;;3.05;;
62711;SDS011;48772;55.586;37.730;2022-10-16T13:12:38;6.18;;;2.58;;
62711;SDS011;48772;55.586;37.730;2022-10-16T13:24:20;5.82;;;3.13;;
62711;SDS011;48772;55.586;37.730;2022-10-16T13:27:03;5.78;;;3.80;;
62711;SDS011;48772;55.586;37.730;2022-10-16T13:29:48;9.25;;;4.60;;
62711;SDS011;48772;55.586;37.730;2022-10-16T13:32:20;7.38;;;4.20;;
62711;SDS011;48772;55.586;37.730;2022-10-16T13:34:48;6.03;;;3.58;;
62711;SDS011;48772;55.586;37.730;2022-10-16T13:37:18;9.82;;;4.97;;
62711;SDS011;48772;55.586;37.730;2022-10-16T13:39:47;9.48;;;4.78;;
62711;SDS011;48772;55.586;37.730;2022-10-16T13:44:52;6.65;;;3.67;;
62711;SDS011;48772;55.586;37.730;2022-10-16T13:47:23;7.47;;;3.70;;
62711;SDS011;48772;55.586;37.730;2022-10-16T13:50:09;6.38;;;3.90;;
62711;SDS011;48772;55.586;37.730;2022-10-16T13:52:41;6.65;;;3.50;;
62711;SDS011;48772;55.586;37.730;2022-10-16T13:57:41;6.13;;;3.17;;
62711;SDS011;48772;55.586;37.730;2022-10-16T14:00:18;7.90;;;3.17;;
62711;SDS011;48772;55.586;37.730;2022-10-16T14:02:45;4.75;;;3.10;;
62711;SDS011;48772;55.586;37.730;2022-10-16T14:05:28;7.70;;;3.10;;
62711;SDS011;48772;55.586;37.730;2022-10-16T14:07:54;8.93;;;3.50;;
62711;SDS011;48772;55.586;37.730;2022-10-16T14:10:26;4.22;;;3.20;;
62711;SDS011;48772;55.586;37.730;2022-10-16T14:12:59;6.10;;;2.90;;
62711;SDS011;48772;55.586;37.730;2022-10-16T14:15:29;9.85;;;3.70;;
62711;SDS011;48772;55.586;37.730;2022-10-16T14:17:57;5.10;;;2.80;;
62711;SDS011;48772;55.586;37.730;2022-10-16T14:20:31;7.03;;;2.90;;
62711;SDS011;48772;55.586;37.730;2022-10-16T14:23:03;5.05;;;3.30;;
62711;SDS011;48772;55.586;37.730;2022-10-16T14:25:44;5.20;;;3.67;;
62711;SDS011;48772;55.586;37.730;2022-10-16T14:30:50;6.93;;;3.75;;
62711;SDS011;48772;55.586;37.730;2022-10-16T14:33:20;5.60;;;3.55;;
62711;SDS011;48772;55.586;37.730;2022-10-16T14:35:59;8.13;;;4.05;;
62711;SDS011;48772;55.586;37.730;2022-10-16T14:38:27;8.80;;;4.05;;
62711;SDS011;48772;55.586;37.730;2022-10-16T14:40:54;6.20;;;3.33;;
62711;SDS011;48772;55.586;37.730;2022-10-16T14:43:27;11.68;;;4.70;;
62711;SDS011;48772;55.586;37.730;2022-10-16T14:45:56;7.93;;;4.88;;
62711;SDS011;48772;55.586;37.730;2022-10-16T14:48:22;8.48;;;5.30;;
62711;SDS011;48772;55.586;37.730;2022-10-16T14:50:49;12.30;;;4.97;;
62711;SDS011;48772;55.586;37.730;2022-10-16T14:53:16;11.45;;;5.40;;
62711;SDS011;48772;55.586;37.730;2022-10-16T14:55:42;9.90;;;5.55;;
62711;SDS011;48772;55.586;37.730;2022-10-16T14:58:17;14.20;;;5.80;;
62711;SDS011;48772;55.586;37.730;2022-10-16T15:00:47;15.48;;;6.85;;
62711;SDS011;48772;55.586;37.730;2022-10-16T15:03:14;10.35;;;6.60;;
62711;SDS011;48772;55.586;37.730;2022-10-16T15:05:43;10.23;;;5.90;;
62711;SDS011;48772;55.586;37.730;2022-10-16T15:08:09;12.88;;;5.63;;
62711;SDS011;48772;55.586;37.730;2022-10-16T15:10:38;10.52;;;5.07;;
62711;SDS011;48772;55.586;37.730;2022-10-16T15:13:08;10.60;;;5.38;;
62711;SDS011;48772;55.586;37.730;2022-10-16T15:15:37;6.68;;;4.20;;
62711;SDS011;48772;55.586;37.730;2022-10-16T15:18:10;7.93;;;4.90;;
62711;SDS011;48772;55.586;37.730;2022-10-16T15:20:38;12.40;;;5.70;;
62711;SDS011;48772;55.586;37.730;2022-10-16T15:23:14;13.60;;;5.90;;
62711;SDS011;48772;55.586;37.730;2022-10-16T15:25:46;10.38;;;5.32;;
62711;SDS011;48772;55.586;37.730;2022-10-16T15:28:13;11.32;;;5.75;;
62711;SDS011;48772;55.586;37.730;2022-10-16T15:30:40;8.90;;;4.45;;
62711;SDS011;48772;55.586;37.730;2022-10-16T15:33:14;7.95;;;4.45;;
62711;SDS011;48772;55.586;37.730;2022-10-16T15:35:45;10.43;;;5.45;;
62711;SDS011;48772;55.586;37.730;2022-10-16T15:38:13;11.63;;;6.13;;
62711;SDS011;48772;55.586;37.730;2022-10-16T15:40:39;10.35;;;5.68;;
62711;SDS011;48772;55.586;37.730;2022-10-16T15:43:08;14.30;;;5.97;;
62711;SDS011;48772;55.586;37.730;2022-10-16T15:45:34;12.93;;;5.95;;
62711;SDS011;48772;55.586;37.730;2022-10-16T15:48:00;17.17;;;6.65;;
62711;SDS011;48772;55.586;37.730;2022-10-16T15:50:26;9.32;;;5.38;;
62711;SDS011;48772;55.586;37.730;2022-10-16T15:52:52;12.90;;;5.43;;
62711;SDS011;48772;55.586;37.730;2022-10-16T15:55:18;14.48;;;6.85;;
62711;SDS011;48772;55.586;37.730;2022-10-16T15:57:44;13.85;;;6.78;;
62711;SDS011;48772;55.586;37.730;2022-10-16T16:00:12;9.93;;;5.68;;
62711;SDS011;48772;55.586;37.730;2022-10-16T16:02:43;14.95;;;7.15;;
62711;SDS011;48772;55.586;37.730;2022-10-16T16:05:16;8.00;;;4.53;;
62711;SDS011;48772;55.586;37.730;2022-10-16T16:07:42;15.02;;;6.70;;
62711;SDS011;48772;55.586;37.730;2022-10-16T16:10:10;14.10;;;7.10;;
62711;SDS011;48772;55.586;37.730;2022-10-16T16:12:45;13.77;;;5.85;;
62711;SDS011;48772;55.586;37.730;2022-10-16T16:15:17;9.98;;;5.68;;
62711;SDS011;48772;55.586;37.730;2022-10-16T16:17:48;10.90;;;5.72;;
62711;SDS011;48772;55.586;37.730;2022-10-16T16:20:15;11.15;;;6.10;;
62711;SDS011;48772;55.586;37.730;2022-10-16T16:22:45;16.30;;;6.18;;
62711;SDS011;48772;55.586;37.730;2022-10-16T16:25:13;11.43;;;6.75;;
62711;SDS011;48772;55.586;37.730;2022-10-16T16:28:39;8.13;;;4.43;;
62711;SDS011;48772;55.586;37.730;2022-10-16T16:31:13;8.27;;;5.07;;
62711;SDS011;48772;55.586;37.730;2022-10-16T16:33:42;10.88;;;6.05;;
62711;SDS011;48772;55.586;37.730;2022-10-16T16:36:09;8.75;;;3.97;;
62711;SDS011;48772;55.586;37.730;2022-10-16T16:38:36;15.68;;;6.32;;
62711;SDS011;48772;55.586;37.730;2022-10-16T16:41:16;10.32;;;4.65;;
62711;SDS011;48772;55.586;37.730;2022-10-16T16:43:47;9.50;;;5.13;;
62711;SDS011;48772;55.586;37.730;2022-10-16T16:46:35;11.15;;;4.93;;
62711;SDS011;48772;55.586;37.730;2022-10-16T16:49:02;12.65;;;6.15;;
62711;SDS011;48772;55.586;37.730;2022-10-16T16:51:38;13.50;;;6.40;;
62711;SDS011;48772;55.586;37.730;2022-10-16T16:54:05;10.73;;;5.40;;
62711;SDS011;48772;55.586;37.730;2022-10-16T16:56:32;14.38;;;6.72;;